createdAt,value
2019-03-17T00:01:19.347Z,94656.21
2019-03-17T00:03:50.047Z,94642.06
2019-03-17T00:06:20.343Z,94649.91
2019-03-17T00:08:51.183Z,94644.95
2019-03-17T00:11:21.561Z,94652.80
2019-03-17T00:13:51.895Z,94652.53
2019-03-17T00:16:22.293Z,94649.42
2019-03-17T00:18:52.989Z,94653.91
2019-03-17T00:21:23.378Z,94652.16
2019-03-17T00:23:53.896Z,94652.59
2019-03-17T00:26:24.238Z,94658.63
2019-03-17T00:28:54.957Z,94649.98
2019-03-17T00:31:25.617Z,94647.09
2019-03-17T00:33:55.989Z,94651.66
2019-03-17T00:36:26.699Z,94649.55
2019-03-17T00:38:57.292Z,94655.36
2019-03-17T00:41:27.607Z,94653.08
2019-03-17T00:43:57.945Z,94651.97
2019-03-17T00:46:28.628Z,94643.00
2019-03-17T00:48:58.910Z,94646.73
2019-03-17T00:51:29.253Z,94641.22
2019-03-17T00:53:59.692Z,94642.02
2019-03-17T00:56:30.332Z,94645.03
2019-03-17T00:59:01.025Z,94648.77
2019-03-17T01:01:31.346Z,94644.69
2019-03-17T01:04:01.825Z,94652.30
2019-03-17T01:06:32.546Z,94649.66
2019-03-17T01:09:03.215Z,94646.72
2019-03-17T01:11:33.734Z,94651.30
2019-03-17T01:14:04.103Z,94650.80
2019-03-17T01:16:34.494Z,94654.05
2019-03-17T01:19:04.798Z,94670.42
2019-03-17T01:21:35.525Z,94667.47
2019-03-17T01:24:06.153Z,94667.73
2019-03-17T01:26:36.774Z,94671.99
2019-03-17T01:29:07.060Z,94673.09
2019-03-17T01:31:38.470Z,94677.38
2019-03-17T01:34:10.534Z,94678.22
2019-03-17T01:36:40.860Z,94674.88
2019-03-17T01:39:11.198Z,94672.76
2019-03-17T01:41:41.798Z,94675.27
2019-03-17T01:44:12.124Z,94674.67
2019-03-17T01:46:42.469Z,94673.87
2019-03-17T01:49:13.150Z,94676.78
2019-03-17T01:51:43.801Z,94678.80
2019-03-17T01:54:14.096Z,94678.06
2019-03-17T01:56:44.779Z,94687.98
2019-03-17T01:59:15.189Z,94689.27
2019-03-17T02:01:45.473Z,94677.20
2019-03-17T02:04:15.851Z,94683.20
2019-03-17T02:06:46.586Z,94678.69
2019-03-17T02:09:16.920Z,94678.00
2019-03-17T02:11:47.265Z,94671.67
2019-03-17T02:14:17.995Z,94680.93
2019-03-17T02:16:48.282Z,94683.34
2019-03-17T02:19:19.677Z,94679.95
2019-03-17T02:21:50.342Z,94684.22
2019-03-17T02:24:20.853Z,94678.09
2019-03-17T02:26:51.127Z,94685.12
2019-03-17T02:29:21.765Z,94690.64
2019-03-17T02:31:52.143Z,94689.31
2019-03-17T02:34:22.853Z,94697.05
2019-03-17T02:36:53.139Z,94689.80
2019-03-17T02:39:26.294Z,94689.89
2019-03-17T02:41:55.982Z,94694.03
2019-03-17T02:44:26.297Z,94691.97
2019-03-17T02:46:56.636Z,94698.87
2019-03-17T02:49:27.339Z,94719.09
2019-03-17T02:51:57.970Z,94712.48
2019-03-17T02:54:28.252Z,94723.97
2019-03-17T02:56:58.934Z,94727.22
2019-03-17T02:59:29.633Z,94721.92
2019-03-17T03:02:00.091Z,94739.99
2019-03-17T03:04:30.733Z,94729.52
2019-03-17T03:07:01.058Z,94738.11
2019-03-17T03:09:31.636Z,94738.27
2019-03-17T03:12:02.158Z,94744.73
2019-03-17T03:14:33.361Z,94749.03
2019-03-17T03:17:04.082Z,94752.59
2019-03-17T03:19:35.860Z,94768.19
2019-03-17T03:22:06.198Z,94765.76
2019-03-17T03:24:36.585Z,94764.96
2019-03-17T03:27:07.204Z,94765.76
2019-03-17T03:29:37.516Z,94772.58
2019-03-17T03:32:08.077Z,94770.05
2019-03-17T03:34:38.522Z,94770.20
2019-03-17T03:37:09.014Z,94769.92
2019-03-17T03:39:39.409Z,94769.59
2019-03-17T03:42:09.685Z,94763.55
2019-03-17T03:44:40.066Z,94761.52
2019-03-17T03:47:10.781Z,94764.94
2019-03-17T03:49:41.111Z,94763.30
2019-03-17T03:52:11.441Z,94758.50
2019-03-17T03:54:42.135Z,94746.39
2019-03-17T03:57:12.422Z,94751.88
2019-03-17T03:59:42.901Z,94753.03
2019-03-17T04:02:13.634Z,94755.88
2019-03-17T04:04:44.199Z,94744.34
2019-03-17T04:07:14.887Z,94750.52
2019-03-17T04:09:45.203Z,94745.72
2019-03-17T04:12:15.483Z,94743.51
2019-03-17T04:14:45.842Z,94745.52
2019-03-17T04:17:16.165Z,94746.16
2019-03-17T04:19:46.473Z,94744.35
2019-03-17T04:22:17.040Z,94747.06
2019-03-17T04:24:47.483Z,94745.50
2019-03-17T04:27:17.931Z,94748.33
2019-03-17T04:29:48.604Z,94747.02
2019-03-17T04:32:19.358Z,94751.61
2019-03-17T04:34:49.641Z,94755.27
2019-03-17T04:37:20.319Z,94758.66
2019-03-17T04:39:50.803Z,94763.05
2019-03-17T04:42:21.207Z,94765.21
2019-03-17T04:44:51.721Z,94764.78
2019-03-17T04:47:22.029Z,94761.73
2019-03-17T04:49:52.473Z,94762.97
2019-03-17T04:55:47.658Z,94769.95
2019-03-17T04:58:18.295Z,94767.23
2019-03-17T05:00:48.952Z,94772.56
2019-03-17T05:03:19.227Z,94781.41
2019-03-17T05:05:49.876Z,94788.34
2019-03-17T05:08:20.550Z,94792.20
2019-03-17T05:10:52.500Z,94797.71
2019-03-17T05:13:22.910Z,94802.25
2019-03-17T05:15:53.239Z,94797.39
2019-03-17T05:18:23.961Z,94817.67
2019-03-17T05:20:54.549Z,94821.80
2019-03-17T05:24:00.225Z,94824.97
2019-03-17T05:26:30.888Z,94830.09
2019-03-17T05:29:01.563Z,94831.69
2019-03-17T05:31:31.832Z,94831.88
2019-03-17T05:34:02.299Z,94822.80
2019-03-17T05:36:32.898Z,94825.91
2019-03-17T05:39:03.212Z,94827.61
2019-03-17T05:41:33.497Z,94830.42
2019-03-17T05:44:03.873Z,94824.10
2019-03-17T05:46:34.527Z,94826.16
2019-03-17T05:49:05.233Z,94831.63
2019-03-17T05:51:35.552Z,94834.66
2019-03-17T05:54:06.206Z,94839.05
2019-03-17T05:56:37.287Z,94835.30
2019-03-17T05:59:07.572Z,94835.66
2019-03-17T06:01:37.853Z,94832.26
2019-03-17T06:04:09.564Z,94844.95
2019-03-17T06:06:40.057Z,94839.20
2019-03-17T06:09:10.329Z,94842.48
2019-03-17T06:11:40.964Z,94845.45
2019-03-17T06:14:11.280Z,94849.54
2019-03-17T06:16:41.613Z,94846.62
2019-03-17T06:19:12.211Z,94847.16
2019-03-17T06:21:42.894Z,94847.22
2019-03-17T06:24:13.205Z,94852.75
2019-03-17T06:26:43.647Z,94847.52
2019-03-17T06:29:14.340Z,94842.66
2019-03-17T06:31:45.646Z,94842.20
2019-03-17T06:34:16.043Z,94846.13
2019-03-17T06:36:46.686Z,94846.07
2019-03-17T06:39:16.963Z,94856.18
2019-03-17T06:41:48.262Z,94847.66
2019-03-17T06:44:18.648Z,94855.21
2019-03-17T06:46:48.945Z,94862.30
2019-03-17T06:49:19.638Z,94856.93
2019-03-17T06:51:50.098Z,94860.97
2019-03-17T06:54:20.504Z,94863.63
2019-03-17T06:56:51.252Z,94866.55
2019-03-17T06:59:21.595Z,94865.02
2019-03-17T07:01:51.901Z,94867.92
2019-03-17T07:04:22.714Z,94864.45
2019-03-17T07:06:53.007Z,94864.09
2019-03-17T07:09:23.322Z,94864.53
2019-03-17T07:11:53.971Z,94856.63
2019-03-17T07:14:24.620Z,94857.42
2019-03-17T07:16:54.928Z,94860.48
2019-03-17T07:19:25.562Z,94850.56
2019-03-17T07:21:55.905Z,94849.33
2019-03-17T07:24:26.307Z,94851.63
2019-03-17T07:26:56.671Z,94850.08
2019-03-17T07:29:27.020Z,94843.41
2019-03-17T07:31:57.682Z,94847.92
2019-03-17T07:34:28.209Z,94845.09
2019-03-17T07:36:58.492Z,94843.30
2019-03-17T07:39:29.125Z,94846.27
2019-03-17T07:41:59.494Z,94838.48
2019-03-17T07:44:29.838Z,94845.61
2019-03-17T07:47:00.562Z,94846.77
2019-03-17T07:49:31.315Z,94838.66
2019-03-17T07:52:01.613Z,94845.22
2019-03-17T07:54:34.902Z,94842.59
2019-03-17T07:57:04.120Z,94846.82
2019-03-17T07:59:34.798Z,94852.86
2019-03-17T08:02:05.364Z,94849.20
2019-03-17T08:04:42.858Z,94839.45
2019-03-17T08:07:08.030Z,94838.69
2019-03-17T08:09:38.409Z,94841.81
2019-03-17T08:12:09.720Z,94839.98
2019-03-17T08:14:40.067Z,94837.13
2019-03-17T08:17:10.614Z,94838.14
2019-03-17T08:19:41.248Z,94832.02
2019-03-17T08:22:11.569Z,94833.89
2019-03-17T08:24:41.944Z,94833.33
2019-03-17T08:27:12.731Z,94827.41
2019-03-17T08:29:43.514Z,94827.44
2019-03-17T08:32:13.802Z,94825.54
2019-03-17T08:34:44.257Z,94816.98
2019-03-17T08:37:14.992Z,94816.63
2019-03-17T08:39:45.328Z,94820.34
2019-03-17T08:42:15.676Z,94834.66
2019-03-17T08:44:46.232Z,94819.55
2019-03-17T08:47:16.542Z,94816.56
2019-03-17T08:49:46.828Z,94812.49
2019-03-17T08:52:17.557Z,94812.33
2019-03-17T08:54:48.190Z,94804.80
2019-03-17T08:57:19.027Z,94804.80
2019-03-17T08:59:49.312Z,94806.24
2019-03-17T09:02:19.654Z,94799.01
2019-03-17T09:04:50.174Z,94801.63
2019-03-17T09:07:20.520Z,94793.12
2019-03-17T09:09:50.825Z,94793.98
2019-03-17T09:12:22.621Z,94799.14
2019-03-17T09:14:53.105Z,94798.58
2019-03-17T09:17:23.374Z,94798.88
2019-03-17T09:19:55.135Z,94790.28
2019-03-17T09:22:25.845Z,94777.63
2019-03-17T09:24:57.196Z,94788.78
2019-03-17T09:27:27.899Z,94784.77
2019-03-17T09:29:58.296Z,94781.05
2019-03-17T09:32:28.966Z,94769.95
2019-03-17T09:34:59.551Z,94778.20
2019-03-17T09:37:29.926Z,94778.20
2019-03-17T09:40:00.492Z,94781.13
2019-03-17T09:42:31.078Z,94768.64
2019-03-17T09:45:01.503Z,94776.62
2019-03-17T09:47:31.911Z,94776.64
2019-03-17T09:50:02.586Z,94764.13
2019-03-17T09:52:32.905Z,94770.97
2019-03-17T09:55:03.233Z,94767.41
2019-03-17T09:57:33.897Z,94769.92
2019-03-17T10:00:04.904Z,94771.52
2019-03-17T10:02:35.548Z,94766.63
2019-03-17T10:05:06.503Z,94757.50
2019-03-17T10:07:37.297Z,94756.34
2019-03-17T10:10:09.007Z,94756.78
2019-03-17T10:12:39.297Z,94736.60
2019-03-17T10:15:11.258Z,94734.14
2019-03-17T10:17:41.947Z,94741.97
2019-03-17T10:20:14.924Z,94730.28
2019-03-17T10:22:45.274Z,94742.32
2019-03-17T10:25:16.037Z,94728.02
2019-03-17T10:27:46.511Z,94732.39
2019-03-17T10:30:17.058Z,94736.94
2019-03-17T10:32:48.067Z,94729.25
2019-03-17T10:35:18.389Z,94737.62
2019-03-17T10:37:48.714Z,94702.33
2019-03-17T10:40:19.539Z,94760.72
2019-03-17T10:42:49.922Z,94724.13
2019-03-17T10:45:20.236Z,94718.66
2019-03-17T10:47:50.644Z,94706.70
2019-03-17T10:50:21.576Z,94723.70
2019-03-17T10:52:51.982Z,94700.39
2019-03-17T10:55:23.361Z,94710.14
2019-03-17T10:57:54.057Z,94694.27
2019-03-17T11:00:24.567Z,94697.38
2019-03-17T11:02:55.660Z,94717.18
2019-03-17T11:05:26.210Z,94707.23
2019-03-17T11:07:56.825Z,94692.19
2019-03-17T11:10:27.204Z,94685.85
2019-03-17T11:12:57.522Z,94681.15
2019-03-17T11:15:27.970Z,94677.92
2019-03-17T11:17:59.520Z,94669.81
2019-03-17T11:20:29.816Z,94678.70
2019-03-17T11:23:00.180Z,94674.70
2019-03-17T11:25:30.827Z,94674.59
2019-03-17T11:28:01.138Z,94655.85
2019-03-17T11:30:31.436Z,94661.10
2019-03-17T11:33:02.117Z,94650.63
2019-03-17T11:35:32.566Z,94645.26
2019-03-17T11:38:03.173Z,94632.97
2019-03-17T11:40:33.491Z,94630.83
2019-03-17T11:43:03.839Z,94627.30
2019-03-17T11:45:34.427Z,94623.93
2019-03-17T11:48:04.760Z,94617.14
2019-03-17T11:50:35.049Z,94603.44
2019-03-17T11:53:05.990Z,94605.59
2019-03-17T11:55:36.439Z,94607.50
2019-03-17T11:58:06.843Z,94607.55
2019-03-17T12:00:37.640Z,94616.88
2019-03-17T12:03:08.272Z,94605.27
2019-03-17T12:05:38.604Z,94587.86
2019-03-17T12:08:09.668Z,94584.33
2019-03-17T12:10:39.972Z,94587.47
2019-03-17T12:13:10.604Z,94587.91
2019-03-17T12:15:41.134Z,94587.03
2019-03-17T12:18:11.463Z,94575.74
2019-03-17T12:20:42.335Z,94560.45
2019-03-17T12:23:12.988Z,94572.32
2019-03-17T12:25:43.402Z,94578.89
2019-03-17T12:28:14.896Z,94572.48
2019-03-17T12:30:45.292Z,94572.17
2019-03-17T12:33:15.587Z,94559.89
2019-03-17T12:35:46.015Z,94560.08
2019-03-17T12:38:16.791Z,94558.71
2019-03-17T12:40:47.139Z,94543.03
2019-03-17T12:43:17.866Z,94548.58
2019-03-17T12:45:48.175Z,94540.55
2019-03-17T12:48:18.810Z,94537.00
2019-03-17T12:50:49.486Z,94526.84
2019-03-17T12:53:19.760Z,94544.17
2019-03-17T12:55:50.117Z,94539.81
2019-03-17T12:58:20.727Z,94549.05
2019-03-17T13:00:51.229Z,94544.82
2019-03-17T13:03:21.595Z,94536.54
2019-03-17T13:05:52.403Z,94538.54
2019-03-17T13:08:22.759Z,94530.74
2019-03-17T13:10:53.044Z,94530.42
2019-03-17T13:13:23.725Z,94542.83
2019-03-17T13:15:54.129Z,94530.55
2019-03-17T13:18:24.798Z,94525.36
2019-03-17T13:20:55.072Z,94520.89
2019-03-17T13:23:25.394Z,94517.02
2019-03-17T13:25:55.771Z,94533.52
2019-03-17T13:28:26.188Z,94540.48
2019-03-17T13:30:56.481Z,94523.97
2019-03-17T13:33:27.156Z,94522.98
2019-03-17T13:35:57.608Z,94526.29
2019-03-17T13:38:27.934Z,94516.62
2019-03-17T13:40:58.633Z,94511.11
2019-03-17T13:43:29.351Z,94512.33
2019-03-17T13:45:59.876Z,94507.79
2019-03-17T13:48:42.894Z,94500.83
2019-03-17T13:51:13.360Z,94495.05
2019-03-17T13:56:12.820Z,94490.72
2019-03-17T13:58:43.469Z,94495.41
2019-03-17T14:01:14.060Z,94473.69
2019-03-17T14:03:44.657Z,94501.16
2019-03-17T14:06:15.396Z,94480.92
2019-03-17T14:08:45.845Z,94483.48
2019-03-17T14:11:17.466Z,94494.59
2019-03-17T14:13:48.034Z,94478.25
2019-03-17T14:16:18.724Z,94475.47
2019-03-17T14:18:49.398Z,94474.47
2019-03-17T14:21:19.841Z,94466.13
2019-03-17T14:23:50.595Z,94455.00
2019-03-17T14:26:20.955Z,94463.79
2019-03-17T14:28:51.762Z,94457.80
2019-03-17T14:31:22.433Z,94461.00
2019-03-17T14:33:53.124Z,94461.38
2019-03-17T14:36:23.940Z,94470.53
2019-03-17T14:38:54.658Z,94466.95
2019-03-17T14:41:25.383Z,94466.78
2019-03-17T14:43:56.026Z,94455.14
2019-03-17T14:46:26.817Z,94464.75
2019-03-17T14:48:57.455Z,94472.54
2019-03-17T14:51:27.903Z,94466.78
2019-03-17T14:53:58.289Z,94477.00
2019-03-17T14:56:28.892Z,94463.95
2019-03-17T14:58:59.518Z,94461.02
2019-03-17T15:01:30.249Z,94456.53
2019-03-17T15:04:00.997Z,94452.45
2019-03-17T15:06:31.757Z,94458.13
2019-03-17T15:09:02.476Z,94457.12
2019-03-17T15:11:33.150Z,94462.91
2019-03-17T15:14:03.894Z,94464.30
2019-03-17T15:16:36.960Z,94457.66
2019-03-17T15:19:06.996Z,94455.34
2019-03-17T15:21:37.378Z,94456.70
2019-03-17T15:24:08.078Z,94453.52
2019-03-17T15:26:38.687Z,94455.70
2019-03-17T15:29:09.273Z,94452.73
2019-03-17T15:31:39.958Z,94460.04
2019-03-17T15:34:12.061Z,94457.44
2019-03-17T15:36:43.694Z,94462.00
2019-03-17T15:39:14.566Z,94466.40
2019-03-17T15:41:46.269Z,94472.89
2019-03-17T15:44:17.001Z,94463.73
2019-03-17T15:46:47.756Z,94469.42
2019-03-17T15:49:18.433Z,94479.20
2019-03-17T15:51:48.835Z,94477.15
2019-03-17T15:54:21.406Z,94481.23
2019-03-17T15:56:51.831Z,94477.13
2019-03-17T15:59:22.541Z,94481.09
2019-03-17T16:01:54.234Z,94483.05
2019-03-17T16:04:24.926Z,94485.56
2019-03-17T16:06:55.604Z,94483.70
2019-03-17T16:09:28.663Z,94488.31
2019-03-17T16:11:58.771Z,94489.73
2019-03-17T16:14:29.313Z,94487.48
2019-03-17T16:16:59.974Z,94485.93
2019-03-17T16:19:30.714Z,94489.03
2019-03-17T16:22:01.186Z,94491.41
2019-03-17T16:24:31.580Z,94487.84
2019-03-17T16:27:02.525Z,94481.61
2019-03-17T16:29:33.056Z,94488.13
2019-03-17T16:32:03.769Z,94486.72
2019-03-17T16:34:34.277Z,94485.81
2019-03-17T16:37:05.199Z,94488.97
2019-03-17T16:39:35.627Z,94490.11
2019-03-17T16:42:06.518Z,94489.34
2019-03-17T16:44:37.306Z,94494.46
2019-03-17T16:47:08.062Z,94498.89
2019-03-17T16:49:38.466Z,94496.47
2019-03-17T16:52:09.067Z,94500.95
2019-03-17T16:54:39.491Z,94497.94
2019-03-17T16:57:10.187Z,94495.52
2019-03-17T16:59:41.051Z,94499.88
2019-03-17T17:02:11.719Z,94495.70
2019-03-17T17:04:42.356Z,94503.06
2019-03-17T17:07:13.409Z,94504.66
2019-03-17T17:09:44.134Z,94507.31
2019-03-17T17:12:14.830Z,94507.41
2019-03-17T17:14:45.568Z,94531.86
2019-03-17T17:17:16.024Z,94510.29
2019-03-17T17:19:46.440Z,94510.29
2019-03-17T17:22:17.120Z,94512.48
2019-03-17T17:24:47.541Z,94513.13
2019-03-17T17:27:20.490Z,94512.58
2019-03-17T17:29:51.625Z,94512.58
2019-03-17T17:32:22.488Z,94515.66
2019-03-17T17:34:53.131Z,94518.23
2019-03-17T17:37:24.325Z,94515.42
2019-03-17T17:39:54.948Z,94524.70
2019-03-17T17:42:25.407Z,94517.92
2019-03-17T17:44:55.820Z,94526.13
2019-03-17T17:47:27.759Z,94525.38
2019-03-17T17:49:58.202Z,94520.12
2019-03-17T17:52:28.577Z,94526.95
2019-03-17T17:54:59.150Z,94527.79
2019-03-17T17:57:29.878Z,94537.02
2019-03-17T18:00:00.399Z,94536.25
2019-03-17T18:02:31.209Z,94539.70
2019-03-17T18:05:01.513Z,94523.94
2019-03-17T18:07:32.203Z,94535.78
2019-03-17T18:10:02.942Z,94536.82
2019-03-17T18:12:33.287Z,94537.67
2019-03-17T18:15:03.960Z,94529.02
2019-03-17T18:17:34.593Z,94532.20
2019-03-17T18:20:05.214Z,94527.73
2019-03-17T18:22:35.640Z,94529.06
2019-03-17T18:25:06.549Z,94528.02
2019-03-17T18:27:36.880Z,94528.28
2019-03-17T18:30:08.475Z,94531.69
2019-03-17T18:32:39.135Z,94531.17
2019-03-17T18:35:09.902Z,94532.19
2019-03-17T18:37:40.723Z,94532.22
2019-03-17T18:40:12.509Z,94533.24
2019-03-17T18:42:43.371Z,94528.27
2019-03-17T18:45:15.856Z,94524.59
2019-03-17T18:47:46.213Z,94523.52
2019-03-17T18:50:20.683Z,94521.70
2019-03-17T18:52:48.845Z,94523.52
2019-03-17T18:55:20.116Z,94517.47
2019-03-17T18:57:50.720Z,94521.67
2019-03-17T19:00:21.679Z,94518.25
2019-03-17T19:02:52.117Z,94513.00
2019-03-17T19:05:22.408Z,94517.70
2019-03-17T19:07:53.376Z,94522.95
2019-03-17T19:10:23.864Z,94523.20
2019-03-17T19:12:54.205Z,94521.34
2019-03-17T19:15:25.068Z,94526.11
2019-03-17T19:17:55.841Z,94526.88
2019-03-17T19:20:26.195Z,94521.64
2019-03-17T19:22:56.591Z,94520.58
2019-03-17T19:25:27.138Z,94524.25
2019-03-17T19:27:57.823Z,94516.39
2019-03-17T19:30:28.251Z,94517.20
2019-03-17T19:32:58.993Z,94519.83
2019-03-17T19:35:29.321Z,94518.00
2019-03-17T19:37:59.631Z,94516.97
2019-03-17T19:40:30.143Z,94516.17
2019-03-17T19:43:00.899Z,94515.94
2019-03-17T19:45:31.579Z,94512.49
2019-03-17T19:48:02.047Z,94510.65
2019-03-17T19:50:32.544Z,94510.39
2019-03-17T19:53:03.384Z,94513.03
2019-03-17T19:55:33.755Z,94526.16
2019-03-17T19:58:04.088Z,94516.19
2019-03-17T20:00:34.569Z,94516.73
2019-03-17T20:03:04.899Z,94516.23
2019-03-17T20:05:35.191Z,94518.30
2019-03-17T20:08:05.844Z,94523.55
2019-03-17T20:10:36.400Z,94533.77
2019-03-17T20:13:11.807Z,94532.70
2019-03-17T20:15:39.191Z,94530.36
2019-03-17T20:18:09.540Z,94527.99
2019-03-17T20:20:40.220Z,94528.22
2019-03-17T20:23:10.508Z,94525.58
2019-03-17T20:25:40.794Z,94526.92
2019-03-17T20:28:11.667Z,94534.48
2019-03-17T20:30:42.141Z,94537.02
2019-03-17T20:33:12.447Z,94527.87
2019-03-17T20:35:43.201Z,94532.27
2019-03-17T20:38:13.785Z,94530.33
2019-03-17T20:40:44.136Z,94530.02
2019-03-17T20:43:23.731Z,94532.19
2019-03-17T20:45:46.870Z,94528.23
2019-03-17T20:48:17.523Z,94525.77
2019-03-17T20:50:48.274Z,94521.23
2019-03-17T20:53:18.929Z,94523.27
2019-03-17T20:55:49.499Z,94523.38
2019-03-17T20:58:20.276Z,94524.93
2019-03-17T21:00:50.679Z,94526.81
2019-03-17T21:03:21.545Z,94525.72
2019-03-17T21:05:52.475Z,94521.37
2019-03-17T21:08:22.864Z,94529.75
2019-03-17T21:10:53.512Z,94524.46
2019-03-17T21:13:24.239Z,94516.97
2019-03-17T21:15:54.590Z,94520.67
2019-03-17T21:18:25.238Z,94511.67
2019-03-17T21:20:55.549Z,94519.94
2019-03-17T21:23:25.946Z,94506.90
2019-03-17T21:25:56.622Z,94514.13
2019-03-17T21:28:27.823Z,94515.20
2019-03-17T21:30:58.342Z,94506.66
2019-03-17T21:33:29.039Z,94511.79
2019-03-17T21:35:59.323Z,94509.64
2019-03-17T21:38:29.638Z,94512.61
2019-03-17T21:41:07.066Z,94514.30
2019-03-17T21:43:32.386Z,94509.23
2019-03-17T21:46:02.690Z,94512.08
2019-03-17T21:48:33.447Z,94512.92
2019-03-17T21:51:03.795Z,94521.02
2019-03-17T21:53:34.207Z,94519.02
2019-03-17T21:56:04.507Z,94527.59
2019-03-17T21:58:34.836Z,94528.48
2019-03-17T22:01:05.381Z,94523.50
2019-03-17T22:03:35.908Z,94524.97
2019-03-17T22:06:06.205Z,94539.41
2019-03-17T22:08:36.909Z,94533.04
2019-03-17T22:11:07.450Z,94538.26
2019-03-17T22:13:37.789Z,94530.89
2019-03-17T22:16:08.457Z,94531.47
2019-03-17T22:18:39.723Z,94535.27
2019-03-17T22:21:11.056Z,94525.61
2019-03-17T22:23:41.556Z,94529.30
2019-03-17T22:26:11.947Z,94529.06
2019-03-17T22:28:42.672Z,94532.56
2019-03-17T22:31:13.115Z,94533.02
2019-03-17T22:33:43.664Z,94536.55
2019-03-17T22:36:14.367Z,94531.19
2019-03-17T22:38:45.013Z,94528.80
2019-03-17T22:41:15.289Z,94534.48
2019-03-17T22:43:45.964Z,94531.70
2019-03-17T22:46:16.654Z,94532.07
2019-03-17T22:48:47.133Z,94535.51
2019-03-17T22:51:18.819Z,94530.66
2019-03-17T22:53:49.095Z,94531.46
2019-03-17T22:56:19.469Z,94527.50
2019-03-17T22:58:49.865Z,94534.38
2019-03-17T23:01:20.163Z,94541.28
2019-03-17T23:03:50.827Z,94539.35
2019-03-17T23:06:21.622Z,94535.34
2019-03-17T23:08:52.174Z,94542.81
2019-03-17T23:11:23.796Z,94547.06
2019-03-17T23:13:54.628Z,94543.47
2019-03-17T23:16:25.024Z,94540.52
2019-03-17T23:18:55.365Z,94548.90
2019-03-17T23:21:26.022Z,94541.20
2019-03-17T23:23:56.630Z,94538.80
2019-03-17T23:26:27.994Z,94546.89
2019-03-17T23:28:58.786Z,94546.41
2019-03-17T23:31:30.189Z,94554.68
2019-03-17T23:34:00.610Z,94560.53
2019-03-17T23:36:31.292Z,94556.86
2019-03-17T23:39:02.069Z,94547.10
2019-03-17T23:41:33.432Z,94550.59
2019-03-17T23:44:04.196Z,94553.74
2019-03-17T23:46:35.100Z,94554.53
2019-03-17T23:49:05.424Z,94555.36
2019-03-17T23:51:36.932Z,94553.73
2019-03-17T23:54:07.756Z,94554.36
2019-03-17T23:56:38.046Z,94554.95
2019-03-17T23:59:08.721Z,94555.48
